Sunflower, MS

4:05 AM CDT on August 01, 2014 (GMT -0500)
Mid Delta Regional (KGLH) Elev 131 ft | 33.48 °N, 90.99 °W | Change Station

Current weather conditions updated 12 minutes ago

Overcast
Overcast
71 °F
Feels Like 71 °F
N
0
Wind Variable Wind from North

Today is forecast to be nearly the same temperature as yesterday. Scattered thunderstorms.

Today
High -- | Low -- °F
--% Chance of Precip.
Yesterday
High -- | Low -- °F
Precip. -- in
6:14 AM 8:01 PM
Waxing Crescent, 25% visible
Pressure 30.02 in
Visibility 6.0 miles
Clouds Overcast 7500 ft
Dew Point 68 °F
Humidity 90%
Rainfall 0.00 in
Snow Depth Not available.
UV 0 out of 12
Pollen 3.20 out of 12
Air Quality Not available.
Flu Activity Not available.
METAR KGLH 010853Z AUTO 00000KT 6SM BR OVC075 22/20 A3001 RMK AO2 SLP166 T02170200 58006

More Conditions Fewer Conditions

Pressure 30.02 in
Visibility 6.0 miles
Clouds Overcast 7500 ft
Dew Point 68 °F
Humidity 90%
Rainfall 0.00 in
Snow Depth Not available.
UV 0 out of 12
Pollen 3.20 out of 12
Air Quality Not available.
Flu Activity Not available.
METAR KGLH 010853Z AUTO 00000KT 6SM BR OVC075 22/20 A3001 RMK AO2 SLP166 T02170200 58006

More Conditions Fewer Conditions

10-Day Weather Forecast

Almanac

Astronomy

Aug. 01, 2014 Rise Set
Actual Time 6:14 AM CDT 8:01 PM CDT
Civil Twilight 5:47 AM CDT 8:29 PM CDT
Nautical Twilight 5:14 AM CDT 9:01 PM CDT
Astronomical Twilight 4:39 AM CDT 9:36 PM CDT
Moon 11:20 AM CDT 11:05 PM CDT
Length of Visible Light 14h 41m
Length of Day
13h 47m
Tomorrow will be 1m 34s shorter.
Waxing Crescent, 25% of the Moon is Illuminated
Today
Waxing Crescent
Aug 3
First Quarter
Aug 10
Full
Aug 17
Last Quarter
Aug 25
New

Today's Extremes

State Highs State Lows

Community

WunderPhotos

Upload Photos

1,739,529 photos uploaded!

Nearby

Snow Depth

Station Depth Elevation
No new snow has been reported.

Earthquake Activity

City Distance Mag. Time & Date
No recent earthquake activity has been reported nearby.
Minimum magnitude displayed is 2.5.

Coastal Water Temperatures

Place Temperature
No Stations Reporting

Nearby Weather Stations

Station Location Temp. Dew Point Humidity Wind Precip. Elev Updated Type
MesoWest BEASLEY LAKE , Inverness, MS 70 °F 70 °F 100% NNE  at  2 mph 0.00 in / hr 115 ft 3:00 AM CDT MADIS
KC4ECB Amature Radio Station on Old Tall, Minter City, MS 69.9 °F 69 °F 96% NNE  at  0.0 mph 0.00 in / hr 140 ft 3:54 AM CDT Normal

Show More Stations Show Fewer Stations